»·PEaware :: N454FT KHND-KHII

N454FT :: KHND-KHII

FLIGHT INFORMATION

Flight Status: Arrived
Operator: Privately registered:
United States
More flights under this callsign
Pilot: Ertha N. (13660)
Aircraft: CESSNA 172 SKYHAWK
(C172)
More flights by this aircraft type
Origin: KHND Henderson
United States
Destination: KHII Lake Havasu City
United States
More flights between these airports :: More routes between these airports
Route: +
File this flight plan on PilotEdge
Remarks:
Altitude:
(Current/Filed)
0ft
Speed:
(Current/Filed)
0kts
Departed: 29-Jan-17 10:50 AM
Arrived: 29-Jan-17 11:38 AM
Distance/Time
Traveled:
92nm/0:48
Distance/Time
To Go:
Arrived

Flight Plot

Page will automatically refresh every two minutes.

Flight plan parsing failed; only flown route is shown


Map Options




Map Legend


Flown Route
Filed Route
Departure Airport
Arrival Airport
Navaid (VOR, NDB)
Fix

Horizontal Profiles

Position Reports

Time Latitude Longitude Heading Altitude Ground
Speed
29-Jan-17 10:49 35.528424 -115.319189 129 6906ft 99kts
29-Jan-17 10:50 35.507924 -115.295694 135 6896ft 100kts
29-Jan-17 10:51 35.485150 -115.275882 150 6899ft 100kts
29-Jan-17 10:52 35.462665 -115.255742 138 6900ft 100kts
29-Jan-17 10:53 35.440519 -115.235059 136 6896ft 101kts
29-Jan-17 10:54 35.419095 -115.213203 135 6905ft 100kts
29-Jan-17 10:55 35.399108 -115.189421 135 6899ft 100kts
29-Jan-17 10:56 35.378009 -115.166975 137 6894ft 101kts
29-Jan-17 10:57 35.356327 -115.145567 142 6908ft 99kts
29-Jan-17 10:58 35.334829 -115.124001 133 6907ft 100kts
29-Jan-17 10:59 35.313606 -115.101841 135 6896ft 101kts
29-Jan-17 11:00 35.292288 -115.079486 142 6897ft 100kts
29-Jan-17 11:01 35.270112 -115.058563 143 6889ft 101kts
29-Jan-17 11:02 35.250124 -115.034433 128 6879ft 100kts
29-Jan-17 11:03 35.231727 -115.009694 147 6892ft 100kts
29-Jan-17 11:04 35.207006 -114.993740 152 6888ft 101kts
29-Jan-17 11:05 35.185286 -114.972665 140 6900ft 99kts
29-Jan-17 11:06 35.164531 -114.950059 137 6896ft 100kts
29-Jan-17 11:07 35.142586 -114.928965 142 6903ft 100kts
29-Jan-17 11:08 35.119227 -114.910454 141 6895ft 101kts
29-Jan-17 11:09 35.099930 -114.886212 134 6905ft 100kts
29-Jan-17 11:10 35.077046 -114.866855 145 6911ft 100kts
29-Jan-17 11:11 35.054627 -114.846710 145 6920ft 100kts
29-Jan-17 11:12 35.032924 -114.825320 143 6925ft 100kts
29-Jan-17 11:13 35.011002 -114.804402 140 6926ft 100kts
29-Jan-17 11:14 34.989555 -114.782835 137 6932ft 100kts
29-Jan-17 11:15 34.968351 -114.760675 140 6940ft 100kts
29-Jan-17 11:16 34.946626 -114.739693 142 6944ft 100kts
29-Jan-17 11:17 34.924053 -114.719930 144 6956ft 99kts
29-Jan-17 11:18 34.901226 -114.700498 152 6964ft 100kts
29-Jan-17 11:19 34.880338 -114.678212 129 6955ft 100kts
29-Jan-17 11:20 34.859020 -114.657173 153 6903ft 99kts
29-Jan-17 11:21 34.836859 -114.638605 110 6585ft 101kts
29-Jan-17 11:22 34.818611 -114.614973 145 6220ft 96kts
29-Jan-17 11:23 34.798508 -114.593792 135 5639ft 95kts
29-Jan-17 11:24 34.776500 -114.575682 141 5067ft 95kts
29-Jan-17 11:25 34.757914 -114.553555 131 4508ft 94kts
29-Jan-17 11:26 34.736812 -114.534092 144 4091ft 99kts
29-Jan-17 11:27 34.716382 -114.512679 134 4072ft 97kts
29-Jan-17 11:28 34.692748 -114.497339 155 3988ft 97kts
29-Jan-17 11:29 34.666242 -114.486079 172 3728ft 103kts
29-Jan-17 11:30 34.646399 -114.476654 133 3238ft 93kts
29-Jan-17 11:31 34.626939 -114.449564 131 2403ft 94kts
29-Jan-17 11:32 34.614640 -114.428745 123 1975ft 90kts
29-Jan-17 11:33 34.596878 -114.408220 154 1469ft 89kts
29-Jan-17 11:34 34.566093 -114.394807 167 1350ft 104kts
29-Jan-17 11:35 34.544117 -114.382914 135 1257ft 70kts
29-Jan-17 11:36 34.539871 -114.366007 70 981ft 66kts
29-Jan-17 11:37 34.554090 -114.346917 356 1155ft 71kts
29-Jan-17 11:38 34.569916 -114.357435 322 750ft 20kts
29-Jan-17 11:39 34.572928 -114.359500 332 751ft 19kts
29-Jan-17 11:40 34.574707 -114.361709 243 750ft 0kts
29-Jan-17 11:41 34.574208 -114.362115 67 745ft 0kts
29-Jan-17 11:42 34.574208 -114.362115 67 745ft 0kts
29-Jan-17 11:43 34.574208 -114.362115 67 745ft 0kts
29-Jan-17 11:44 34.574208 -114.362115 67 745ft 0kts
29-Jan-17 11:45 34.574208 -114.362115 67 745ft 0kts
29-Jan-17 11:46 34.574208 -114.362115 67 745ft 0kts
29-Jan-17 11:47 34.574208 -114.362115 67 745ft 0kts
29-Jan-17 11:48 34.574208 -114.362115 67 745ft 0kts
29-Jan-17 11:49 34.574208 -114.362115 67 745ft 0kts
29-Jan-17 11:50 34.574208 -114.362115 67 745ft 0kts
29-Jan-17 11:51 34.574208 -114.362115 67 745ft 0kts
29-Jan-17 11:52 34.574208 -114.362115 67 745ft 0kts

Navigation Log

Ident Type
Flight plan parsing failed, navigation log unavailable